Terminal Aerodrome Forecast
Issued by NWS Buffalo, NY

Home | Current Version | Previous Version | Text Only | Print | Product List | Glossary On
Versions: 1 2 3 4 5 6 7 8 9 10 11 12 13 14 15 16 17 18 19 20 21 22 23
606
FTUS41 KBUF 291739
TAFROC
TAF
KROC 291739Z 2918/3018 03011KT P6SM BKN035 OVC070
     FM292100 05009KT P6SM BKN030 OVC070
     FM292300 07006KT P6SM BKN035 OVC070
     FM300200 VRB03KT P6SM BKN035 BKN080
     FM301000 02007KT P6SM SCT250=

USA.gov is the U.S. government's official web portal to all federal, state and local government web resources and services.